createdAt,value
2018-05-15T00:00:31.376Z,56.10
2018-05-15T00:01:08.675Z,56.00
2018-05-15T00:01:45.995Z,55.70
2018-05-15T00:02:24.023Z,55.60
2018-05-15T00:03:02.216Z,56.00
2018-05-15T00:03:39.595Z,55.80
2018-05-15T00:04:17.685Z,55.80
2018-05-15T00:04:55.008Z,55.80
2018-05-15T00:05:32.296Z,55.20
2018-05-15T00:06:09.737Z,54.90
2018-05-15T00:06:47.004Z,54.60
2018-05-15T00:07:25.082Z,55.40
2018-05-15T00:08:02.390Z,54.80
2018-05-15T00:08:40.537Z,54.50
2018-05-15T00:09:18.750Z,54.10
2018-05-15T00:09:56.831Z,53.20
2018-05-15T00:10:34.827Z,53.40
2018-05-15T00:11:12.263Z,53.30
2018-05-15T00:11:50.288Z,54.10
2018-05-15T00:12:28.590Z,54.90
2018-05-15T00:13:05.838Z,54.70
2018-05-15T00:13:43.207Z,55.40
2018-05-15T00:14:20.403Z,55.90
2018-05-15T00:14:57.806Z,55.50
2018-05-15T00:15:35.206Z,55.70
2018-05-15T00:16:12.539Z,55.70
2018-05-15T00:16:50.538Z,55.20
2018-05-15T00:17:28.770Z,56.40
2018-05-15T00:18:06.075Z,55.80
2018-05-15T00:18:43.334Z,55.50
2018-05-15T00:19:20.757Z,55.60
2018-05-15T00:19:58.817Z,56.30
2018-05-15T00:20:36.228Z,56.30
2018-05-15T00:21:14.316Z,55.90
2018-05-15T00:21:51.696Z,55.90
2018-05-15T00:22:29.840Z,55.00
2018-05-15T00:23:07.113Z,55.00
2018-05-15T00:23:44.589Z,55.70
2018-05-15T00:24:22.079Z,55.60
2018-05-15T00:24:59.484Z,55.90
2018-05-15T00:25:37.574Z,55.10
2018-05-15T00:26:14.904Z,55.10
2018-05-15T00:26:53.077Z,55.70
2018-05-15T00:27:30.312Z,55.70
2018-05-15T00:28:07.739Z,55.50
2018-05-15T00:28:45.879Z,55.90
2018-05-15T00:29:24.094Z,53.70
2018-05-15T00:30:02.424Z,53.70
2018-05-15T00:30:39.779Z,53.60
2018-05-15T00:31:17.853Z,54.50
2018-05-15T00:31:55.163Z,54.60
2018-05-15T00:32:33.155Z,55.20
2018-05-15T00:33:10.554Z,55.20
2018-05-15T00:33:48.598Z,55.60
2018-05-15T00:34:25.826Z,55.70
2018-05-15T00:35:03.239Z,55.40
2018-05-15T00:35:41.355Z,54.90
2018-05-15T00:36:18.566Z,54.80
2018-05-15T00:36:56.829Z,54.60
2018-05-15T00:37:35.145Z,54.10
2018-05-15T00:38:12.334Z,54.00
2018-05-15T00:38:49.758Z,54.50
2018-05-15T00:39:27.842Z,55.20
2018-05-15T00:40:05.114Z,55.20
2018-05-15T00:40:42.479Z,55.50
2018-05-15T00:41:20.589Z,55.90
2018-05-15T00:41:57.843Z,55.90
2018-05-15T00:42:35.292Z,55.50
2018-05-15T00:43:12.550Z,56.00
2018-05-15T00:43:50.615Z,55.80
2018-05-15T00:44:28.714Z,56.20
2018-05-15T00:45:07.117Z,55.10
2018-05-15T00:45:44.364Z,55.10
2018-05-15T00:46:22.569Z,53.20
2018-05-15T00:47:00.054Z,53.30
2018-05-15T00:47:38.345Z,54.00
2018-05-15T00:48:15.638Z,54.00
2018-05-15T00:48:53.709Z,53.70
2018-05-15T00:49:31.119Z,53.60
2018-05-15T00:50:09.206Z,53.20
2018-05-15T00:50:46.531Z,53.20
2018-05-15T00:51:23.878Z,52.80
2018-05-15T00:52:01.298Z,52.20
2018-05-15T00:52:38.618Z,52.00
2018-05-15T00:53:16.015Z,52.20
2018-05-15T00:53:53.304Z,52.20
2018-05-15T00:54:30.578Z,51.90
2018-05-15T00:55:08.828Z,51.90
2018-05-15T00:55:46.209Z,51.90
2018-05-15T00:56:24.279Z,52.50
2018-05-15T00:57:01.659Z,52.40
2018-05-15T00:57:38.930Z,52.70
2018-05-15T00:58:17.033Z,52.30
2018-05-15T00:58:54.382Z,52.30
2018-05-15T00:59:32.594Z,52.90
2018-05-15T01:00:09.943Z,52.90
2018-05-15T01:00:47.978Z,52.50
2018-05-15T01:01:25.409Z,52.50
2018-05-15T01:02:02.752Z,53.10
2018-05-15T01:02:40.962Z,53.10
2018-05-15T01:03:19.403Z,53.70
2018-05-15T01:03:56.763Z,53.70
2018-05-15T01:04:34.978Z,54.10
2018-05-15T01:05:13.178Z,54.50
2018-05-15T01:05:51.182Z,53.70
2018-05-15T01:06:28.337Z,53.70
2018-05-15T01:07:06.542Z,54.20
2018-05-15T01:07:43.771Z,54.20
2018-05-15T01:08:21.139Z,53.90
2018-05-15T01:08:59.292Z,53.80
2018-05-15T01:09:36.637Z,53.80
2018-05-15T01:10:14.867Z,54.50
2018-05-15T01:10:52.167Z,54.40
2018-05-15T01:11:29.478Z,54.40
2018-05-15T01:12:06.954Z,54.40
2018-05-15T01:12:45.070Z,54.30
2018-05-15T01:13:23.189Z,53.70
2018-05-15T01:14:01.388Z,54.30
2018-05-15T01:14:38.668Z,54.30
2018-05-15T01:15:16.006Z,55.40
2018-05-15T01:15:54.110Z,54.70
2018-05-15T01:16:31.333Z,54.70
2018-05-15T01:17:08.559Z,54.60
2018-05-15T01:17:46.637Z,54.10
2018-05-15T01:18:24.149Z,54.20
2018-05-15T01:19:02.230Z,53.40
2018-05-15T01:19:40.324Z,53.70
2018-05-15T01:20:17.651Z,53.70
2018-05-15T01:20:55.079Z,54.00
2018-05-15T01:21:33.257Z,55.10
2018-05-15T01:22:10.677Z,54.50
2018-05-15T01:22:47.924Z,55.00
2018-05-15T01:23:25.379Z,55.00
2018-05-15T01:24:03.380Z,55.30
2018-05-15T01:24:41.578Z,55.50
2018-05-15T01:25:18.773Z,55.50
2018-05-15T01:25:56.948Z,55.60
2018-05-15T01:26:35.062Z,54.30
2018-05-15T01:27:12.406Z,54.30
2018-05-15T01:27:50.661Z,53.70
2018-05-15T01:28:28.039Z,53.70
2018-05-15T01:29:06.177Z,52.70
2018-05-15T01:29:44.399Z,52.60
2018-05-15T01:30:22.593Z,52.60
2018-05-15T01:30:59.944Z,52.60
2018-05-15T01:31:37.215Z,52.50
2018-05-15T01:32:14.596Z,52.80
2018-05-15T01:32:52.051Z,52.70
2018-05-15T01:33:29.445Z,52.50
2018-05-15T01:34:06.795Z,52.90
2018-05-15T01:34:44.174Z,53.20
2018-05-15T01:35:21.341Z,53.70
2018-05-15T01:35:58.622Z,53.00
2018-05-15T01:36:35.887Z,53.30
2018-05-15T01:37:13.178Z,52.70
2018-05-15T01:37:51.409Z,52.00
2018-05-15T01:38:28.769Z,52.00
2018-05-15T01:39:06.837Z,52.90
2018-05-15T01:39:45.077Z,52.80
2018-05-15T01:40:22.314Z,52.80
2018-05-15T01:40:59.720Z,53.50
2018-05-15T01:41:37.813Z,53.40
2018-05-15T01:42:15.213Z,53.30
2018-05-15T01:42:53.319Z,52.60
2018-05-15T01:43:30.650Z,52.60
2018-05-15T01:44:08.851Z,53.80
2018-05-15T01:44:46.105Z,53.80
2018-05-15T01:45:24.369Z,53.00
2018-05-15T01:46:02.529Z,53.60
2018-05-15T01:46:39.873Z,53.60
2018-05-15T01:47:18.098Z,52.40
2018-05-15T01:47:55.350Z,52.30
2018-05-15T01:48:32.616Z,52.60
2018-05-15T01:49:10.846Z,52.00
2018-05-15T01:49:48.149Z,52.00
2018-05-15T01:50:25.763Z,52.00
2018-05-15T01:51:03.135Z,52.70
2018-05-15T01:51:40.526Z,52.20
2018-05-15T01:52:17.817Z,51.70
2018-05-15T01:52:55.144Z,51.50
2018-05-15T01:53:33.383Z,51.60
2018-05-15T01:54:10.654Z,51.70
2018-05-15T01:54:47.945Z,51.50
2018-05-15T01:55:26.093Z,51.80
2018-05-15T01:56:04.081Z,51.50
2018-05-15T01:56:41.427Z,51.50
2018-05-15T01:57:18.659Z,51.60
2018-05-15T01:57:55.970Z,51.60
2018-05-15T01:58:34.202Z,51.60
2018-05-15T01:59:11.447Z,51.60
2018-05-15T01:59:48.931Z,52.20
2018-05-15T02:00:26.936Z,51.70
2018-05-15T02:01:04.339Z,51.70
2018-05-15T02:01:41.673Z,52.00
2018-05-15T02:02:19.781Z,52.80
2018-05-15T02:02:57.981Z,53.30
2018-05-15T02:03:36.186Z,53.20
2018-05-15T02:04:13.415Z,53.20
2018-05-15T02:04:51.666Z,51.80
2018-05-15T02:05:29.017Z,51.80
2018-05-15T02:06:07.215Z,51.90
2018-05-15T02:06:44.478Z,51.90
2018-05-15T02:07:22.590Z,50.90
2018-05-15T02:07:59.921Z,50.90
2018-05-15T02:08:37.305Z,51.20
2018-05-15T02:09:15.431Z,51.00
2018-05-15T02:09:53.643Z,51.10
2018-05-15T02:10:31.147Z,51.10
2018-05-15T02:11:08.458Z,51.20
2018-05-15T02:11:45.937Z,50.80
2018-05-15T02:12:23.307Z,50.90
2018-05-15T02:13:00.806Z,50.40
2018-05-15T02:13:38.117Z,51.10
2018-05-15T02:14:16.183Z,50.70
2018-05-15T02:14:54.174Z,50.60
2018-05-15T02:15:31.537Z,50.50
2018-05-15T02:16:08.962Z,50.80
2018-05-15T02:16:46.391Z,50.70
2018-05-15T02:17:23.706Z,51.40
2018-05-15T02:18:01.913Z,51.30
2018-05-15T02:18:39.273Z,50.70
2018-05-15T02:19:17.357Z,51.60
2018-05-15T02:19:54.739Z,51.50
2018-05-15T02:20:32.188Z,52.20
2018-05-15T02:21:09.669Z,52.10
2018-05-15T02:21:47.113Z,52.00
2018-05-15T02:22:24.542Z,51.20
2018-05-15T02:23:01.944Z,51.00
2018-05-15T02:23:39.426Z,50.20
2018-05-15T02:24:16.752Z,51.10
2018-05-15T02:24:54.121Z,50.70
2018-05-15T02:25:31.617Z,50.70
2018-05-15T02:26:09.759Z,50.70
2018-05-15T02:26:47.147Z,50.70
2018-05-15T02:27:25.382Z,50.80
2018-05-15T02:28:03.502Z,50.30
2018-05-15T02:28:40.837Z,50.30
2018-05-15T02:29:18.269Z,50.40
2018-05-15T02:29:56.334Z,50.30
2018-05-15T02:30:33.661Z,50.20
2018-05-15T02:31:11.820Z,50.70
2018-05-15T02:31:49.132Z,50.70
2018-05-15T02:32:27.173Z,51.60
2018-05-15T02:33:05.271Z,52.30
2018-05-15T02:33:42.617Z,52.20
2018-05-15T02:34:19.846Z,52.20
2018-05-15T02:34:57.141Z,52.40
2018-05-15T02:35:34.320Z,52.00
2018-05-15T02:36:11.605Z,51.80
2018-05-15T02:36:48.980Z,51.30
2018-05-15T02:37:26.264Z,51.20
2018-05-15T02:38:04.419Z,50.80
2018-05-15T02:38:41.831Z,50.80
2018-05-15T02:39:19.894Z,50.90
2018-05-15T02:39:57.295Z,50.80
2018-05-15T02:40:35.379Z,50.60
2018-05-15T02:41:12.728Z,50.70
2018-05-15T02:41:50.230Z,50.80
2018-05-15T02:42:27.461Z,50.60
2018-05-15T02:43:05.699Z,51.40
2018-05-15T02:43:43.058Z,51.40
2018-05-15T02:44:20.508Z,50.90
2018-05-15T02:44:57.917Z,50.90
2018-05-15T02:45:36.129Z,51.30
2018-05-15T02:46:13.737Z,51.30
2018-05-15T02:46:51.131Z,51.20
2018-05-15T02:47:29.282Z,51.60
2018-05-15T02:48:07.455Z,51.90
2018-05-15T02:48:45.571Z,52.00
2018-05-15T02:49:22.883Z,52.00
2018-05-15T02:50:00.278Z,52.30
2018-05-15T02:50:37.562Z,52.40
2018-05-15T02:51:14.950Z,52.50
2018-05-15T02:51:53.152Z,52.50
2018-05-15T02:52:31.994Z,53.00
2018-05-15T02:53:09.308Z,53.10
2018-05-15T02:53:46.593Z,52.90
2018-05-15T02:54:23.793Z,53.30
2018-05-15T02:55:01.362Z,53.50
2018-05-15T02:55:38.514Z,53.70
2018-05-15T02:56:16.004Z,53.90
2018-05-15T02:56:53.189Z,54.00
2018-05-15T02:57:30.546Z,54.00
2018-05-15T02:58:08.010Z,54.40
2018-05-15T02:58:46.254Z,53.80
2018-05-15T02:59:24.353Z,53.70
2018-05-15T03:00:01.707Z,53.70
2018-05-15T03:00:39.919Z,53.90
2018-05-15T03:01:17.256Z,53.80
2018-05-15T03:01:54.649Z,53.60
2018-05-15T03:02:32.005Z,53.70
2018-05-15T03:03:09.511Z,53.60
2018-05-15T03:03:46.867Z,53.20
2018-05-15T03:04:24.259Z,53.80
2018-05-15T03:05:01.670Z,53.50
2018-05-15T03:05:39.692Z,53.60
2018-05-15T03:06:17.947Z,53.30
2018-05-15T03:06:55.314Z,53.30
2018-05-15T03:07:33.461Z,53.90
2018-05-15T03:08:10.834Z,53.90
2018-05-15T03:08:48.993Z,53.60
2018-05-15T03:09:26.467Z,53.60
2018-05-15T03:10:04.556Z,53.70
2018-05-15T03:10:41.819Z,53.70
2018-05-15T03:11:19.938Z,53.30
2018-05-15T03:11:57.313Z,53.30
2018-05-15T03:12:35.395Z,53.30
2018-05-15T03:13:12.766Z,53.30
2018-05-15T03:13:50.875Z,53.80
2018-05-15T03:14:28.320Z,53.80
2018-05-15T03:15:05.517Z,53.40
2018-05-15T03:15:42.919Z,53.70
2018-05-15T03:16:21.017Z,53.30
2018-05-15T03:16:59.078Z,53.00
2018-05-15T03:17:36.306Z,53.00
2018-05-15T03:18:13.610Z,53.20
2018-05-15T03:18:50.953Z,53.20
2018-05-15T03:19:28.196Z,53.20
2018-05-15T03:20:05.352Z,53.70
2018-05-15T03:20:43.532Z,53.20
2018-05-15T03:21:21.750Z,53.20
2018-05-15T03:21:59.170Z,53.20
2018-05-15T03:22:37.237Z,53.10
2018-05-15T03:23:14.562Z,53.10
2018-05-15T03:23:51.966Z,53.10
2018-05-15T03:24:30.049Z,53.30
2018-05-15T03:25:07.340Z,53.30
2018-05-15T03:25:45.423Z,53.20
2018-05-15T03:26:22.781Z,53.10
2018-05-15T03:27:00.250Z,52.80
2018-05-15T03:27:37.579Z,52.90
2018-05-15T03:28:14.881Z,53.10
2018-05-15T03:28:53.109Z,52.70
2018-05-15T03:29:31.106Z,53.30
2018-05-15T03:30:09.267Z,52.50
2018-05-15T03:30:46.624Z,52.50
2018-05-15T03:31:23.932Z,53.10
2018-05-15T03:32:01.411Z,53.00
2018-05-15T03:32:38.798Z,52.40
2018-05-15T03:33:16.096Z,52.50
2018-05-15T03:33:53.417Z,53.20
2018-05-15T03:34:31.442Z,52.60
2018-05-15T03:35:09.661Z,52.90
2018-05-15T03:35:47.725Z,53.00
2018-05-15T03:36:25.082Z,52.90
2018-05-15T03:37:02.486Z,52.60
2018-05-15T03:37:39.884Z,52.80
2018-05-15T03:38:17.204Z,52.60
2018-05-15T03:38:54.551Z,52.60
2018-05-15T03:39:31.876Z,52.90
2018-05-15T03:40:10.086Z,53.20
2018-05-15T03:40:47.298Z,53.20
2018-05-15T03:41:25.361Z,53.60
2018-05-15T03:42:02.881Z,53.50
2018-05-15T03:42:40.950Z,53.70
2018-05-15T03:43:18.190Z,53.60
2018-05-15T03:43:55.660Z,53.70
2018-05-15T03:44:33.021Z,53.70
2018-05-15T03:45:10.449Z,53.70
2018-05-15T03:45:47.867Z,53.60
2018-05-15T03:46:25.340Z,53.70
2018-05-15T03:47:03.382Z,53.50
2018-05-15T03:47:40.861Z,53.50
2018-05-15T03:48:18.092Z,53.40
2018-05-15T03:48:56.321Z,53.10
2018-05-15T03:49:34.590Z,53.60
2018-05-15T03:50:12.810Z,53.70
2018-05-15T03:50:50.213Z,53.70
2018-05-15T03:51:27.450Z,53.60
2018-05-15T03:52:05.513Z,53.30
2018-05-15T03:52:42.883Z,53.30
2018-05-15T03:53:20.946Z,53.20
2018-05-15T03:53:58.316Z,53.20
2018-05-15T03:54:35.637Z,53.10
2018-05-15T03:55:13.083Z,52.70
2018-05-15T03:55:51.151Z,53.00
2018-05-15T03:56:29.150Z,53.10
2018-05-15T03:57:06.582Z,53.20
2018-05-15T03:57:44.722Z,53.40
2018-05-15T03:58:21.961Z,53.40
2018-05-15T03:58:59.454Z,53.30
2018-05-15T03:59:36.930Z,53.50
2018-05-15T04:00:14.430Z,53.30
2018-05-15T04:00:52.537Z,53.60
2018-05-15T04:01:29.765Z,53.00
2018-05-15T04:02:07.240Z,53.10
2018-05-15T04:02:44.643Z,53.30
2018-05-15T04:03:22.746Z,53.00
2018-05-15T04:04:00.176Z,52.90
2018-05-15T04:04:37.617Z,53.00
2018-05-15T04:05:15.076Z,53.00
2018-05-15T04:05:52.390Z,53.00
2018-05-15T04:06:29.772Z,52.80
2018-05-15T04:07:07.160Z,53.00
2018-05-15T04:07:44.437Z,53.00
2018-05-15T04:08:22.737Z,53.00
2018-05-15T04:08:59.938Z,53.00
2018-05-15T04:09:37.340Z,52.90
2018-05-15T04:10:15.354Z,52.90
2018-05-15T04:10:52.749Z,52.90
2018-05-15T04:11:31.162Z,53.50
2018-05-15T04:12:10.001Z,53.20
2018-05-15T04:12:47.441Z,53.20
2018-05-15T04:13:24.683Z,53.10
2018-05-15T04:14:02.012Z,53.00
2018-05-15T04:14:40.046Z,52.60
2018-05-15T04:15:17.372Z,52.60
2018-05-15T04:15:55.603Z,52.10
2018-05-15T04:16:32.970Z,52.00
2018-05-15T04:17:10.374Z,51.90
2018-05-15T04:17:47.720Z,52.10
2018-05-15T04:18:25.288Z,52.50
2018-05-15T04:19:02.661Z,52.70
2018-05-15T04:19:40.046Z,52.70
2018-05-15T04:20:17.418Z,52.60
2018-05-15T04:20:55.438Z,52.30
2018-05-15T04:21:32.838Z,51.80
2018-05-15T04:22:10.917Z,51.10
2018-05-15T04:22:48.279Z,51.20
2018-05-15T04:23:26.421Z,51.20
2018-05-15T04:24:03.880Z,51.20
2018-05-15T04:24:41.275Z,51.30
2018-05-15T04:25:19.329Z,52.10
2018-05-15T04:25:57.453Z,51.90
2018-05-15T04:26:34.775Z,52.00
2018-05-15T04:27:12.970Z,51.70
2018-05-15T04:27:50.265Z,51.70
2018-05-15T04:28:28.416Z,51.70
2018-05-15T04:29:05.868Z,51.60
2018-05-15T04:29:43.233Z,52.70
2018-05-15T04:30:21.312Z,51.80
2018-05-15T04:30:59.403Z,51.00
2018-05-15T04:31:36.764Z,51.00
2018-05-15T04:32:14.952Z,51.50
2018-05-15T04:32:52.215Z,51.50
2018-05-15T04:33:29.590Z,51.70
2018-05-15T04:34:07.618Z,52.20
2018-05-15T04:34:44.916Z,52.20
2018-05-15T04:35:23.155Z,52.30
2018-05-15T04:36:00.581Z,52.30
2018-05-15T04:36:38.660Z,52.60
2018-05-15T04:37:15.983Z,52.60
2018-05-15T04:37:53.326Z,52.70
2018-05-15T04:38:31.398Z,52.70
2018-05-15T04:39:08.702Z,52.70
2018-05-15T04:39:46.083Z,53.30
2018-05-15T04:40:24.038Z,54.00
2018-05-15T04:41:01.394Z,54.00
2018-05-15T04:41:39.613Z,54.00
2018-05-15T04:42:16.956Z,54.00
2018-05-15T04:42:54.168Z,53.30
2018-05-15T04:43:32.475Z,54.00
2018-05-15T04:44:10.742Z,54.10
2018-05-15T04:44:47.924Z,54.10
2018-05-15T04:45:25.233Z,54.10
2018-05-15T04:46:02.514Z,54.10
2018-05-15T04:46:40.661Z,55.00
2018-05-15T04:47:18.077Z,55.00
2018-05-15T04:47:55.448Z,55.10
2018-05-15T04:48:32.881Z,53.80
2018-05-15T04:49:10.345Z,52.90
2018-05-15T04:49:47.669Z,52.90
2018-05-15T04:50:24.880Z,53.50
2018-05-15T04:51:02.076Z,53.70
2018-05-15T04:51:39.354Z,53.90
2018-05-15T04:52:17.582Z,54.50
2018-05-15T04:52:54.899Z,54.50
2018-05-15T04:53:32.347Z,54.80
2018-05-15T04:54:09.658Z,54.40
2018-05-15T04:54:47.142Z,55.20
2018-05-15T04:55:25.255Z,55.10
2018-05-15T04:56:02.509Z,55.00
2018-05-15T04:56:39.878Z,54.60
2018-05-15T04:57:17.261Z,53.50
2018-05-15T04:57:54.693Z,54.60
2018-05-15T04:58:32.870Z,54.70
2018-05-15T04:59:10.147Z,54.70
2018-05-15T04:59:48.237Z,54.30
2018-05-15T05:00:25.606Z,54.20
2018-05-15T05:01:03.014Z,54.50
2018-05-15T05:01:40.249Z,54.90
2018-05-15T05:02:17.715Z,54.20
2018-05-15T05:02:55.186Z,53.50
2018-05-15T05:03:32.484Z,54.30
2018-05-15T05:04:09.927Z,54.50
2018-05-15T05:04:47.358Z,54.50
2018-05-15T05:05:24.609Z,54.50
2018-05-15T05:06:02.134Z,54.40
2018-05-15T05:06:40.208Z,54.10
2018-05-15T05:07:17.596Z,54.10
2018-05-15T05:07:54.910Z,54.30
2018-05-15T05:08:32.181Z,53.80
2018-05-15T05:09:09.391Z,53.70
2018-05-15T05:09:46.726Z,53.50
2018-05-15T05:10:24.888Z,53.80
2018-05-15T05:11:02.127Z,53.80
2018-05-15T05:11:40.385Z,53.80
2018-05-15T05:12:18.648Z,53.80
2018-05-15T05:12:56.098Z,53.80
2018-05-15T05:13:33.449Z,54.10
2018-05-15T05:14:10.957Z,53.50
2018-05-15T05:14:48.383Z,52.90
2018-05-15T05:15:26.401Z,53.10
2018-05-15T05:16:04.399Z,52.70
2018-05-15T05:16:42.502Z,52.70
2018-05-15T05:17:20.582Z,53.00
2018-05-15T05:17:57.961Z,53.00
2018-05-15T05:18:36.182Z,53.30
2018-05-15T05:19:13.469Z,53.20
2018-05-15T05:19:51.541Z,53.60
2018-05-15T05:20:29.043Z,53.60
2018-05-15T05:21:07.035Z,53.00
2018-05-15T05:21:45.293Z,52.50
2018-05-15T05:22:22.713Z,52.50
2018-05-15T05:22:59.849Z,52.50
2018-05-15T05:23:37.011Z,52.50
2018-05-15T05:24:14.321Z,53.00
2018-05-15T05:24:51.580Z,52.70
2018-05-15T05:25:29.683Z,52.90
2018-05-15T05:26:07.026Z,52.80
2018-05-15T05:26:45.234Z,53.20
2018-05-15T05:27:22.493Z,53.20
2018-05-15T05:28:00.615Z,52.20
2018-05-15T05:28:37.965Z,52.20
2018-05-15T05:29:15.459Z,51.90
2018-05-15T05:29:53.542Z,52.30
2018-05-15T05:30:31.767Z,52.50
2018-05-15T05:31:09.020Z,52.40
2018-05-15T05:31:46.354Z,52.20
2018-05-15T05:32:24.507Z,52.70
2018-05-15T05:33:01.839Z,52.70
2018-05-15T05:33:39.331Z,52.50
2018-05-15T05:34:16.796Z,52.00
2018-05-15T05:34:54.071Z,53.00
2018-05-15T05:35:31.563Z,52.10
2018-05-15T05:36:08.821Z,52.10
2018-05-15T05:36:47.176Z,52.40
2018-05-15T05:37:24.583Z,52.30
2018-05-15T05:38:01.983Z,52.60
2018-05-15T05:38:40.187Z,52.30
2018-05-15T05:39:17.772Z,52.30
2018-05-15T05:39:55.258Z,52.40
2018-05-15T05:40:32.426Z,52.60
2018-05-15T05:41:09.912Z,51.80
2018-05-15T05:41:47.945Z,52.90
2018-05-15T05:42:25.249Z,52.90
2018-05-15T05:43:03.386Z,52.30
2018-05-15T05:43:41.570Z,52.40
2018-05-15T05:44:18.925Z,52.50
2018-05-15T05:44:57.041Z,52.90
2018-05-15T05:45:34.592Z,52.90
2018-05-15T05:46:12.651Z,52.60
2018-05-15T05:46:49.968Z,52.60
2018-05-15T05:47:27.274Z,52.50
2018-05-15T05:48:04.671Z,52.70
2018-05-15T05:48:43.081Z,53.00
2018-05-15T05:49:20.503Z,53.00
2018-05-15T05:49:57.896Z,53.20
2018-05-15T05:50:35.875Z,52.90
2018-05-15T05:51:13.362Z,53.00
2018-05-15T05:51:51.394Z,52.80
2018-05-15T05:52:29.021Z,52.90
2018-05-15T05:53:06.227Z,52.70
2018-05-15T05:53:44.418Z,52.70
2018-05-15T05:54:21.862Z,52.80
2018-05-15T05:54:59.292Z,53.00
2018-05-15T05:55:36.577Z,53.00
2018-05-15T05:56:14.639Z,53.20
2018-05-15T05:56:52.828Z,52.70
2018-05-15T05:57:30.270Z,52.70
2018-05-15T05:58:07.650Z,52.80
2018-05-15T05:58:44.997Z,52.50
2018-05-15T05:59:23.237Z,52.70
2018-05-15T06:00:00.530Z,52.70
2018-05-15T06:00:37.902Z,52.50
2018-05-15T06:01:15.239Z,52.50
2018-05-15T06:01:53.478Z,53.00
2018-05-15T06:02:30.991Z,53.00
2018-05-15T06:03:08.248Z,52.90
2018-05-15T06:03:46.434Z,53.00
2018-05-15T06:04:23.742Z,53.00
2018-05-15T06:05:01.909Z,52.40
2018-05-15T06:05:40.005Z,52.50
2018-05-15T06:06:17.338Z,52.50
2018-05-15T06:06:54.739Z,52.80
2018-05-15T06:07:32.762Z,52.70
2018-05-15T06:08:10.250Z,52.70
2018-05-15T06:08:47.618Z,52.30
2018-05-15T06:09:25.773Z,51.70
2018-05-15T06:10:03.895Z,52.30
2018-05-15T06:10:41.978Z,52.50
2018-05-15T06:11:19.402Z,52.50
2018-05-15T06:11:56.854Z,53.10
2018-05-15T06:12:34.830Z,52.90
2018-05-15T06:13:12.139Z,52.80
2018-05-15T06:13:50.179Z,52.90
2018-05-15T06:14:27.663Z,52.90
2018-05-15T06:15:05.757Z,52.90
2018-05-15T06:15:43.109Z,52.80
2018-05-15T06:16:20.522Z,52.90
2018-05-15T06:16:57.973Z,52.90
2018-05-15T06:17:35.236Z,53.00
2018-05-15T06:18:12.698Z,52.90
2018-05-15T06:18:49.975Z,52.90
2018-05-15T06:19:27.325Z,52.70
2018-05-15T06:20:04.677Z,52.80
2018-05-15T06:20:42.721Z,53.00
2018-05-15T06:21:20.177Z,53.00
2018-05-15T06:21:57.708Z,53.50
2018-05-15T06:22:35.281Z,52.70
2018-05-15T06:23:12.753Z,52.50
2018-05-15T06:23:50.971Z,53.00
2018-05-15T06:24:28.348Z,52.90
2018-05-15T06:25:06.448Z,52.60
2018-05-15T06:25:44.442Z,53.80
2018-05-15T06:26:22.408Z,52.80
2018-05-15T06:27:00.732Z,52.60
2018-05-15T06:27:37.969Z,52.50
2018-05-15T06:28:16.285Z,51.80
2018-05-15T06:28:54.276Z,52.50
2018-05-15T06:29:31.600Z,52.50
2018-05-15T06:30:09.761Z,52.50
2018-05-15T06:30:47.861Z,52.30
2018-05-15T06:31:25.207Z,52.20
2018-05-15T06:32:03.291Z,52.00
2018-05-15T06:32:40.656Z,52.00
2018-05-15T06:33:18.090Z,52.20
2018-05-15T06:33:56.209Z,52.50
2018-05-15T06:34:34.377Z,52.50
2018-05-15T06:35:11.631Z,52.50
2018-05-15T06:35:48.930Z,52.20
2018-05-15T06:36:26.910Z,53.50
2018-05-15T06:37:04.257Z,53.50
2018-05-15T06:37:42.469Z,52.50
2018-05-15T06:38:19.911Z,52.60
2018-05-15T06:38:57.992Z,52.50
2018-05-15T06:39:36.290Z,52.90
2018-05-15T06:40:13.490Z,52.90
2018-05-15T06:40:50.784Z,53.10
2018-05-15T06:41:28.069Z,52.60
2018-05-15T06:42:06.974Z,52.60
2018-05-15T06:42:44.482Z,52.50
2018-05-15T06:43:21.830Z,52.60
2018-05-15T06:43:59.922Z,52.50
2018-05-15T06:44:37.226Z,52.40
2018-05-15T06:45:14.692Z,52.50
2018-05-15T06:45:52.027Z,52.60
2018-05-15T06:46:30.010Z,52.40
2018-05-15T06:47:07.234Z,52.40
2018-05-15T06:47:44.519Z,52.00
2018-05-15T06:48:22.041Z,52.70
2018-05-15T06:48:59.438Z,52.80
2018-05-15T06:49:36.704Z,52.70
2018-05-15T06:50:14.080Z,52.50
2018-05-15T06:50:52.096Z,53.00
2018-05-15T06:51:29.321Z,53.00
2018-05-15T06:52:06.794Z,53.00
2018-05-15T06:52:44.162Z,53.30
2018-05-15T06:53:21.437Z,53.10
2018-05-15T06:53:58.909Z,52.30
2018-05-15T06:54:36.980Z,52.70
2018-05-15T06:55:14.259Z,52.70
2018-05-15T06:55:52.219Z,52.70
2018-05-15T06:56:29.591Z,52.60
2018-05-15T06:57:07.822Z,52.50
2018-05-15T06:57:45.071Z,52.50
2018-05-15T06:58:22.222Z,52.60
2018-05-15T06:58:59.568Z,52.90
2018-05-15T06:59:36.797Z,53.10
2018-05-15T07:00:14.148Z,52.60
2018-05-15T07:00:51.625Z,52.40
2018-05-15T07:01:29.011Z,52.70
2018-05-15T07:02:07.003Z,52.60
2018-05-15T07:02:45.086Z,52.30
2018-05-15T07:03:22.581Z,52.30
2018-05-15T07:04:00.675Z,52.80
2018-05-15T07:04:38.767Z,53.40
2018-05-15T07:05:16.868Z,52.60
2018-05-15T07:05:54.116Z,52.60
2018-05-15T07:06:32.230Z,52.90
2018-05-15T07:07:09.683Z,52.80
2018-05-15T07:07:46.963Z,53.00
2018-05-15T07:08:24.751Z,53.10
2018-05-15T07:09:02.758Z,53.10
2018-05-15T07:09:40.055Z,53.00
2018-05-15T07:10:18.141Z,52.90
2018-05-15T07:10:56.213Z,53.00
2018-05-15T07:11:33.620Z,53.00
2018-05-15T07:12:11.682Z,53.60
2018-05-15T07:12:49.803Z,53.10
2018-05-15T07:13:27.989Z,52.90
2018-05-15T07:14:05.311Z,52.90
2018-05-15T07:14:43.567Z,52.90
2018-05-15T07:15:20.863Z,52.80
2018-05-15T07:15:59.039Z,52.40
2018-05-15T07:16:37.238Z,52.50
2018-05-15T07:17:15.625Z,52.50
2018-05-15T07:17:53.030Z,52.40
2018-05-15T07:18:30.353Z,52.60
2018-05-15T07:19:07.835Z,52.70
2018-05-15T07:19:45.205Z,52.70
2018-05-15T07:20:22.678Z,52.90
2018-05-15T07:21:00.078Z,52.70
2018-05-15T07:21:38.176Z,52.70
2018-05-15T07:22:15.583Z,52.60
2018-05-15T07:22:52.843Z,52.60
2018-05-15T07:23:30.942Z,52.30
2018-05-15T07:24:08.285Z,52.30
2018-05-15T07:24:45.651Z,52.30
2018-05-15T07:25:23.759Z,52.40
2018-05-15T07:26:00.992Z,52.40
2018-05-15T07:26:38.428Z,52.10
2018-05-15T07:27:16.515Z,52.50
2018-05-15T07:27:54.794Z,52.30
2018-05-15T07:28:32.897Z,52.30
2018-05-15T07:29:10.151Z,52.30
2018-05-15T07:29:47.514Z,52.40
2018-05-15T07:30:25.666Z,52.70
2018-05-15T07:31:02.898Z,52.50
2018-05-15T07:31:40.302Z,52.90
2018-05-15T07:32:18.403Z,53.10
2018-05-15T07:32:56.474Z,52.90
2018-05-15T07:33:33.822Z,52.90
2018-05-15T07:34:11.234Z,52.50
2018-05-15T07:34:49.231Z,52.50
2018-05-15T07:35:26.581Z,52.50
2018-05-15T07:36:03.971Z,52.70
2018-05-15T07:36:42.059Z,52.40
2018-05-15T07:37:19.470Z,52.40
2018-05-15T07:37:57.646Z,52.70
2018-05-15T07:38:35.826Z,52.60
2018-05-15T07:39:14.034Z,52.50
2018-05-15T07:39:51.399Z,52.50
2018-05-15T07:40:29.599Z,52.20
2018-05-15T07:41:07.798Z,52.30
2018-05-15T07:41:45.122Z,52.30
2018-05-15T07:42:22.554Z,52.20
2018-05-15T07:43:00.801Z,52.70
2018-05-15T07:43:38.851Z,52.90
2018-05-15T07:44:16.213Z,52.90
2018-05-15T07:44:53.521Z,52.90
2018-05-15T07:45:31.680Z,53.50
2018-05-15T07:46:09.690Z,52.30
2018-05-15T07:46:47.039Z,52.30
2018-05-15T07:47:24.450Z,52.50
2018-05-15T07:48:01.694Z,53.00
2018-05-15T07:48:39.155Z,53.20
2018-05-15T07:49:17.407Z,53.00
2018-05-15T07:49:55.361Z,52.70
2018-05-15T07:50:32.801Z,52.60
2018-05-15T07:51:10.211Z,52.50
2018-05-15T07:51:48.412Z,52.10
2018-05-15T07:52:25.761Z,52.10
2018-05-15T07:53:03.243Z,52.50
2018-05-15T07:53:40.652Z,52.70
2018-05-15T07:54:18.154Z,52.20
2018-05-15T07:54:55.450Z,52.30
2018-05-15T07:55:32.655Z,52.40
2018-05-15T07:56:10.127Z,52.40
2018-05-15T07:56:47.416Z,52.10
2018-05-15T07:57:24.677Z,52.00
2018-05-15T07:58:02.788Z,52.30
2018-05-15T07:58:40.162Z,52.30
2018-05-15T07:59:17.609Z,52.20
2018-05-15T07:59:54.875Z,52.20
2018-05-15T08:00:32.180Z,52.30
2018-05-15T08:01:09.540Z,52.40
2018-05-15T08:01:47.675Z,52.50
2018-05-15T08:02:24.917Z,52.50
2018-05-15T08:03:02.171Z,52.40
2018-05-15T08:03:40.463Z,52.40
2018-05-15T08:04:18.726Z,52.40
2018-05-15T08:04:57.000Z,52.50